createdAt,value
2023-01-31T00:01:07.859Z,25.17
2023-01-31T00:06:11.130Z,26.97
2023-01-31T00:11:04.430Z,27.43
2023-01-31T00:15:59.556Z,27.47
2023-01-31T00:20:52.856Z,26.87
2023-01-31T00:25:46.315Z,26.80
2023-01-31T00:30:39.591Z,28.33
2023-01-31T00:35:34.607Z,28.37
2023-01-31T00:40:28.940Z,24.47
2023-01-31T00:45:22.304Z,29.27
2023-01-31T00:50:18.360Z,26.50
2023-01-31T00:55:13.127Z,28.13
2023-01-31T01:00:07.319Z,28.53
2023-01-31T01:05:00.613Z,28.63
2023-01-31T01:09:56.496Z,26.43
2023-01-31T01:14:51.132Z,29.50
2023-01-31T01:19:44.469Z,30.53
2023-01-31T01:24:37.653Z,29.20
2023-01-31T01:29:30.851Z,29.93
2023-01-31T01:34:26.080Z,30.57
2023-01-31T01:39:19.492Z,32.50
2023-01-31T01:44:49.231Z,36.77
2023-01-31T01:49:44.153Z,28.97
2023-01-31T01:54:43.042Z,32.40
2023-01-31T01:59:42.993Z,29.00
2023-01-31T02:04:40.673Z,31.85
2023-01-31T02:09:43.620Z,29.93
2023-01-31T02:14:38.231Z,32.03
2023-01-31T02:19:51.031Z,29.97
2023-01-31T02:25:43.226Z,31.73
2023-01-31T02:31:09.593Z,33.13
2023-01-31T02:36:16.917Z,31.47
2023-01-31T02:41:18.583Z,34.57
2023-01-31T02:46:18.113Z,35.13
2023-01-31T02:51:17.894Z,36.70
2023-01-31T02:56:23.785Z,36.47
2023-01-31T03:01:20.664Z,39.17
2023-01-31T03:07:00.433Z,35.97
2023-01-31T03:12:07.086Z,31.80
2023-01-31T03:17:25.342Z,32.07
2023-01-31T03:22:26.441Z,31.13
2023-01-31T03:32:24.772Z,34.03
2023-01-31T03:37:26.164Z,34.53
2023-01-31T03:42:28.063Z,37.90
2023-01-31T03:47:26.429Z,39.20
2023-01-31T03:52:25.341Z,37.87
2023-01-31T03:57:22.622Z,37.00
2023-01-31T04:02:19.407Z,34.37
2023-01-31T04:07:13.409Z,33.20
2023-01-31T04:12:08.055Z,35.77
2023-01-31T04:17:01.464Z,30.53
2023-01-31T04:21:56.165Z,35.50
2023-01-31T04:26:49.917Z,40.23
2023-01-31T04:31:43.370Z,43.13
2023-01-31T04:36:36.825Z,39.97
2023-01-31T04:41:40.583Z,37.07
2023-01-31T04:46:34.209Z,36.47
2023-01-31T04:51:27.530Z,38.97
2023-01-31T04:56:20.855Z,33.00
2023-01-31T05:01:16.038Z,35.27
2023-01-31T05:06:09.789Z,37.53
2023-01-31T05:11:04.686Z,33.90
2023-01-31T05:15:58.670Z,39.20
2023-01-31T05:20:53.852Z,39.20
2023-01-31T05:25:51.355Z,36.23
2023-01-31T05:30:44.860Z,36.93
2023-01-31T05:35:39.638Z,34.63
2023-01-31T05:40:37.371Z,36.93
2023-01-31T05:45:32.539Z,50.80
2023-01-31T05:50:26.749Z,51.63
2023-01-31T05:55:20.887Z,44.80
2023-01-31T06:00:18.210Z,40.60
2023-01-31T06:05:12.815Z,46.43
2023-01-31T06:10:08.370Z,42.63
2023-01-31T06:15:04.852Z,34.97
2023-01-31T06:20:00.239Z,31.53
2023-01-31T06:24:53.633Z,43.33
2023-01-31T06:29:47.030Z,36.23
2023-01-31T06:34:40.443Z,40.33
2023-01-31T06:39:35.115Z,36.03
2023-01-31T06:44:28.468Z,41.07
2023-01-31T06:49:21.954Z,33.33
2023-01-31T06:54:15.284Z,37.33
2023-01-31T06:59:10.068Z,38.90
2023-01-31T07:04:03.444Z,38.33
2023-01-31T07:08:56.724Z,39.53
2023-01-31T07:13:50.543Z,49.87
2023-01-31T07:18:45.456Z,40.03
2023-01-31T07:23:39.728Z,47.10
2023-01-31T07:28:33.328Z,41.57
2023-01-31T07:33:28.853Z,42.50
2023-01-31T07:38:23.826Z,39.80
2023-01-31T07:43:17.142Z,51.37
2023-01-31T07:48:10.473Z,32.77
2023-01-31T07:53:03.819Z,46.73
2023-01-31T07:57:58.659Z,39.30
2023-01-31T08:03:09.581Z,51.77
2023-01-31T08:08:11.499Z,48.05
2023-01-31T08:13:07.107Z,40.77
2023-01-31T08:18:06.432Z,36.07
2023-01-31T08:23:01.835Z,40.83
2023-01-31T08:27:55.186Z,45.93
2023-01-31T08:32:50.012Z,41.67
2023-01-31T08:37:43.352Z,37.10
2023-01-31T08:42:37.604Z,41.83
2023-01-31T08:47:41.664Z,38.93
2023-01-31T08:52:41.651Z,44.67
2023-01-31T08:57:35.123Z,49.40
2023-01-31T09:02:33.639Z,42.67
2023-01-31T09:07:30.231Z,35.73
2023-01-31T09:12:25.080Z,41.60
2023-01-31T09:17:20.195Z,46.33
2023-01-31T09:22:13.617Z,45.37
2023-01-31T09:27:07.030Z,45.50
2023-01-31T09:32:04.333Z,45.03
2023-01-31T09:36:57.909Z,44.43
2023-01-31T09:41:57.658Z,40.43
2023-01-31T09:46:57.432Z,46.10
2023-01-31T09:51:59.273Z,50.37
2023-01-31T09:57:02.267Z,37.23
2023-01-31T10:02:05.880Z,36.77
2023-01-31T10:07:07.913Z,36.97
2023-01-31T10:12:05.875Z,38.50
2023-01-31T10:17:08.599Z,44.73
2023-01-31T10:22:09.701Z,51.70
2023-01-31T10:27:13.509Z,45.10
2023-01-31T10:32:23.290Z,42.73
2023-01-31T10:37:27.345Z,39.37
2023-01-31T10:42:29.213Z,39.97
2023-01-31T10:47:33.794Z,36.47
2023-01-31T10:52:40.779Z,34.30
2023-01-31T10:57:35.335Z,35.77
2023-01-31T11:02:31.230Z,32.13
2023-01-31T11:07:25.814Z,36.30
2023-01-31T11:12:20.487Z,39.20
2023-01-31T11:17:20.265Z,28.37
2023-01-31T11:22:23.553Z,26.30
2023-01-31T11:27:28.613Z,34.13
2023-01-31T11:32:26.531Z,39.23
2023-01-31T11:37:20.587Z,31.70
2023-01-31T11:42:16.298Z,30.43
2023-01-31T11:47:16.795Z,28.93
2023-01-31T11:52:16.086Z,28.20
2023-01-31T11:57:16.611Z,24.23
2023-01-31T12:02:27.294Z,28.10
2023-01-31T12:07:24.592Z,27.17
2023-01-31T12:12:30.029Z,24.77
2023-01-31T12:17:24.722Z,31.07
2023-01-31T12:22:23.220Z,46.30
2023-01-31T12:27:29.443Z,38.03
2023-01-31T12:32:39.717Z,41.60
2023-01-31T12:37:47.485Z,73.95
2023-01-31T12:42:58.018Z,36.50
2023-01-31T12:48:15.916Z,28.20
2023-01-31T12:53:44.525Z,35.10
2023-01-31T12:58:49.601Z,23.93
2023-01-31T13:04:06.605Z,23.97
2023-01-31T13:09:08.413Z,21.53
2023-01-31T13:14:04.828Z,22.73
2023-01-31T13:19:03.797Z,27.90
2023-01-31T13:24:00.801Z,21.90
2023-01-31T13:29:01.922Z,30.37
2023-01-31T13:34:02.787Z,23.07
2023-01-31T13:38:57.695Z,24.10
2023-01-31T13:43:50.900Z,27.63
2023-01-31T13:48:55.554Z,25.47
2023-01-31T13:53:55.131Z,24.37
2023-01-31T13:58:53.220Z,21.83
2023-01-31T14:04:30.934Z,24.77
2023-01-31T14:09:28.358Z,32.30
2023-01-31T14:14:31.093Z,30.63
2023-01-31T14:20:03.435Z,29.37
2023-01-31T14:25:01.176Z,37.73
2023-01-31T14:30:00.080Z,42.73
2023-01-31T14:34:56.727Z,40.13
2023-01-31T14:40:08.004Z,37.67
2023-01-31T14:45:46.360Z,36.13
2023-01-31T14:51:03.856Z,42.57
2023-01-31T14:56:12.621Z,39.83
2023-01-31T15:01:11.561Z,34.43
2023-01-31T15:06:12.072Z,36.70
2023-01-31T15:11:09.238Z,37.05
2023-01-31T15:16:04.819Z,48.33
2023-01-31T15:21:34.129Z,44.20
2023-01-31T15:26:35.822Z,50.10
2023-01-31T15:31:47.845Z,64.60
2023-01-31T15:37:13.618Z,45.27
2023-01-31T15:43:47.940Z,55.93
2023-01-31T15:57:08.378Z,81.70
2023-01-31T16:02:23.091Z,77.57
2023-01-31T16:07:28.616Z,91.70
2023-01-31T16:12:30.897Z,93.53
2023-01-31T16:17:54.017Z,103.13
2023-01-31T16:23:09.525Z,113.70
2023-01-31T16:34:47.589Z,63.87
2023-01-31T16:39:47.888Z,73.33
2023-01-31T16:44:50.480Z,79.10
2023-01-31T16:50:41.891Z,56.28
2023-01-31T17:08:24.467Z,81.03
2023-01-31T17:13:24.769Z,86.47
2023-01-31T17:18:49.518Z,116.07
2023-01-31T17:23:48.827Z,106.50
2023-01-31T17:29:00.914Z,163.30
2023-01-31T17:33:56.820Z,168.83
2023-01-31T17:38:52.639Z,204.43
2023-01-31T17:43:54.806Z,202.50
2023-01-31T17:48:50.170Z,165.57
2023-01-31T17:53:49.878Z,130.77
2023-01-31T17:58:55.643Z,111.60
2023-01-31T18:03:49.258Z,107.63
2023-01-31T18:08:42.812Z,70.60
2023-01-31T18:13:38.257Z,125.13
2023-01-31T18:18:33.599Z,85.27
2023-01-31T18:23:30.943Z,43.67
2023-01-31T18:28:25.960Z,100.00
2023-01-31T18:39:36.996Z,67.87
2023-01-31T18:44:45.282Z,54.70
2023-01-31T18:54:51.527Z,87.10
2023-01-31T18:59:44.688Z,71.73
2023-01-31T19:04:38.835Z,57.67
2023-01-31T19:09:32.271Z,70.00
2023-01-31T19:14:27.258Z,100.23
2023-01-31T19:19:21.028Z,110.60
2023-01-31T19:24:21.182Z,121.33
2023-01-31T19:29:18.894Z,74.38
2023-01-31T19:34:19.469Z,76.97
2023-01-31T19:39:16.008Z,78.00
2023-01-31T19:44:13.286Z,82.77
2023-01-31T19:49:07.190Z,90.53
2023-01-31T19:54:03.284Z,94.97
2023-01-31T19:58:57.081Z,88.33
2023-01-31T20:03:51.474Z,89.40
2023-01-31T20:08:45.157Z,95.57
2023-01-31T20:13:46.120Z,78.57
2023-01-31T20:18:57.005Z,94.50
2023-01-31T20:23:53.258Z,115.88
2023-01-31T20:28:50.641Z,107.67
2023-01-31T20:33:44.931Z,122.87
2023-01-31T20:38:56.281Z,106.77
2023-01-31T20:43:57.072Z,107.67
2023-01-31T20:53:59.018Z,99.77
2023-01-31T20:58:57.207Z,106.60
2023-01-31T21:08:48.436Z,96.27
2023-01-31T21:13:43.695Z,45.60
2023-01-31T21:18:40.578Z,35.97
2023-01-31T21:23:36.628Z,42.40
2023-01-31T21:28:30.128Z,39.40
2023-01-31T21:33:25.302Z,39.00
2023-01-31T21:38:23.522Z,40.47
2023-01-31T21:43:17.975Z,45.97
2023-01-31T21:48:33.771Z,35.90
2023-01-31T21:53:31.876Z,31.27
2023-01-31T21:58:26.452Z,31.50
2023-01-31T22:03:25.305Z,30.73
2023-01-31T22:08:19.308Z,36.13
2023-01-31T22:13:15.601Z,30.73
2023-01-31T22:18:08.982Z,32.17
2023-01-31T22:23:02.400Z,36.30
2023-01-31T22:28:10.576Z,32.73
2023-01-31T22:33:07.511Z,31.13
2023-01-31T22:38:01.143Z,28.93
2023-01-31T22:42:54.750Z,26.50
2023-01-31T22:47:49.921Z,25.17
2023-01-31T22:52:44.892Z,20.07
2023-01-31T22:57:38.288Z,19.80
2023-01-31T23:02:33.104Z,21.43
2023-01-31T23:07:26.473Z,22.83
2023-01-31T23:12:21.107Z,23.03
2023-01-31T23:17:32.075Z,35.60
2023-01-31T23:22:25.361Z,32.10
2023-01-31T23:27:21.630Z,25.93
2023-01-31T23:32:18.374Z,22.97
2023-01-31T23:37:11.970Z,20.27
2023-01-31T23:42:06.021Z,19.70
2023-01-31T23:46:59.543Z,21.30
2023-01-31T23:51:54.552Z,17.83
2023-01-31T23:56:47.828Z,17.40
